Time;durP1;ratioP1;P1;durP2;ratioP2;P2;SDS_P1;SDS_P2;PMS_P1;PMS_P2;Temp;Humidity;BMP_temperature;BMP_pressure;BME280_temperature;BME280_humidity;BME280_pressure;Samples;Min_cycle;Max_cycle;Signal;HPM_P1;HPM_P2
2022/12/01 00:01:22;;;;;;;;;;;8.00;99.90;;;;;;5075317;28;20006;-69
2022/12/01 00:03:48;;;;;;;;;;;8.00;99.90;;;;;;5093677;28;19908;-70
2022/12/01 00:06:18;;;;;;;;;;;8.00;99.90;;;;;;5103294;28;19911;-74
2022/12/01 00:10:24;;;;;;;;;;;8.00;99.90;;;;;;5095114;28;19991;-69
2022/12/01 00:11:31;;;;;;;;;;;8.00;99.90;;;;;;5113851;27;19912;-70
2022/12/01 00:13:57;;;;;;;;;;;7.90;99.90;;;;;;5095967;27;19919;-70
2022/12/01 00:16:23;;;;;;;;;;;8.00;99.90;;;;;;5092525;28;19908;-69
2022/12/01 00:18:49;;;;;;;;;;;8.00;99.90;;;;;;5093653;28;19934;-70
2022/12/01 00:21:15;;;;;;;;;;;8.00;99.90;;;;;;5093183;28;19929;-69
2022/12/01 00:23:48;;;;;;;;;;;7.90;99.90;;;;;;5094188;28;19919;-70
2022/12/01 00:26:17;;;;;;;;;;;7.90;99.90;;;;;;5092955;28;20028;-70
2022/12/01 00:28:43;;;;;;;;;;;7.90;99.90;;;;;;5093946;28;19935;-70
2022/12/01 00:31:10;;;;;;;;;;;7.80;99.90;;;;;;5093445;28;19912;-71
2022/12/01 00:33:36;;;;;;;;;;;7.80;99.90;;;;;;5106003;28;20339;-69
2022/12/01 00:36:02;;;;;;;;;;;7.80;99.90;;;;;;5114516;27;19958;-69
2022/12/01 00:38:28;;;;;;;;;;;7.80;99.90;;;;;;5112403;28;20007;-70
2022/12/01 00:40:54;;;;;;;;;;;7.80;99.90;;;;;;5109869;28;19955;-69
2022/12/01 00:43:20;;;;;;;;;;;7.80;99.90;;;;;;5113083;28;19908;-69
2022/12/01 00:45:45;;;;;;;;;;;7.80;99.90;;;;;;5114488;27;20383;-70
2022/12/01 00:48:11;;;;;;;;;;;7.80;99.90;;;;;;5109921;27;19912;-68
2022/12/01 00:50:37;;;;;;;;;;;7.80;99.90;;;;;;5075004;28;19908;-69
2022/12/01 00:53:03;;;;;;;;;;;7.70;99.90;;;;;;5093142;28;19915;-67
2022/12/01 00:55:28;;;;;;;;;;;7.70;99.90;;;;;;5111626;28;19911;-69
2022/12/01 00:57:54;;;;;;;;;;;7.70;99.90;;;;;;5106786;27;19961;-69
2022/12/01 01:00:20;;;;;;;;;;;7.70;99.90;;;;;;5110842;28;19965;-67
2022/12/01 01:02:46;;;;;;;;;;;7.70;99.90;;;;;;5113277;28;19981;-68
2022/12/01 01:05:12;;;;;;;;;;;7.70;99.90;;;;;;5113035;28;20374;-69
2022/12/01 01:07:37;;;;;;;;;;;7.60;99.90;;;;;;5113667;28;20370;-69
2022/12/01 01:10:03;;;;;;;;;;;7.60;99.90;;;;;;5113180;28;19960;-69
2022/12/01 01:12:29;;;;;;;;;;;7.60;99.90;;;;;;5111335;27;19917;-68
2022/12/01 01:14:55;;;;;;;;;;;7.60;99.90;;;;;;5102837;28;19912;-67
2022/12/01 01:17:20;;;;;;;;;;;7.60;99.90;;;;;;5092595;28;19924;-69
2022/12/01 01:19:46;;;;;;;;;;;7.70;99.90;;;;;;5092740;28;20390;-68
2022/12/01 01:22:11;;;;;;;;;;;7.70;99.90;;;;;;5092929;28;19915;-69
2022/12/01 01:24:37;;;;;;;;;;;7.70;99.90;;;;;;5095734;28;19915;-69
2022/12/01 01:27:04;;;;;;;;;;;7.60;99.90;;;;;;5096995;28;19930;-67
2022/12/01 01:29:31;;;;;;;;;;;7.60;99.90;;;;;;5097418;28;19943;-70
2022/12/01 01:31:57;;;;;;;;;;;7.60;99.90;;;;;;5112015;28;19943;-69
2022/12/01 01:34:22;;;;;;;;;;;7.60;99.90;;;;;;5097026;27;19938;-66
2022/12/01 01:36:48;;;;;;;;;;;7.60;99.90;;;;;;5096224;28;19969;-69
2022/12/01 01:39:14;;;;;;;;;;;7.60;99.90;;;;;;5096972;28;20357;-69
2022/12/01 01:41:40;;;;;;;;;;;7.60;99.90;;;;;;5104788;28;20135;-66
2022/12/01 01:44:24;;;;;;;;;;;7.60;99.90;;;;;;5116837;28;19911;-68
2022/12/01 01:46:49;;;;;;;;;;;7.60;99.90;;;;;;5116933;28;19912;-67
2022/12/01 01:49:15;;;;;;;;;;;7.60;99.90;;;;;;5097652;28;19919;-69
2022/12/01 01:51:47;;;;;;;;;;;7.60;99.90;;;;;;5116867;28;19954;-70
2022/12/01 01:54:34;;;;;;;;;;;7.60;99.90;;;;;;5116974;28;19912;-69
2022/12/01 01:57:01;;;;;;;;;;;7.60;99.90;;;;;;5116893;28;19915;-66
2022/12/01 01:59:28;;;;;;;;;;;7.60;99.90;;;;;;5107227;28;19912;-69
2022/12/01 02:01:59;;;;;;;;;;;7.60;99.90;;;;;;5104970;27;19907;-69
2022/12/01 02:04:25;;;;;;;;;;;7.60;99.90;;;;;;5100681;27;19999;-66
2022/12/01 02:06:51;;;;;;;;;;;7.60;99.90;;;;;;5104021;28;19912;-69
2022/12/01 02:09:17;;;;;;;;;;;7.60;99.90;;;;;;5096549;28;19983;-69
2022/12/01 02:11:49;;;;;;;;;;;7.60;99.90;;;;;;5095625;28;19954;-69
2022/12/01 02:14:36;;;;;;;;;;;7.60;99.90;;;;;;5099653;27;19954;-69
2022/12/01 02:17:08;;;;;;;;;;;7.60;99.90;;;;;;5108654;28;19972;-69
2022/12/01 02:19:44;;;;;;;;;;;7.60;99.90;;;;;;5116810;28;19927;-69
2022/12/01 02:22:10;;;;;;;;;;;7.70;99.90;;;;;;5107558;28;19940;-69
2022/12/01 02:25:08;;;;;;;;;;;7.60;99.90;;;;;;5096731;28;19963;-69
2022/12/01 02:27:36;;;;;;;;;;;7.60;99.90;;;;;;5061093;28;19916;-69
2022/12/01 02:30:08;;;;;;;;;;;7.70;99.90;;;;;;5095938;28;19911;-68
2022/12/01 02:32:52;;;;;;;;;;;7.70;99.90;;;;;;5100154;28;19908;-67
2022/12/01 02:35:22;;;;;;;;;;;7.70;99.90;;;;;;5118524;27;19946;-69
2022/12/01 02:38:07;;;;;;;;;;;7.70;99.90;;;;;;5136999;27;19927;-69
2022/12/01 02:40:38;;;;;;;;;;;7.70;99.90;;;;;;5106677;28;19916;-68
2022/12/01 02:43:24;;;;;;;;;;;7.70;99.90;;;;;;5095751;28;19908;-69
2022/12/01 02:45:55;;;;;;;;;;;7.70;99.90;;;;;;5084677;28;19918;-68
2022/12/01 02:48:28;;;;;;;;;;;7.70;99.90;;;;;;5106473;27;19981;-68
2022/12/01 02:50:56;;;;;;;;;;;7.70;99.90;;;;;;5115856;28;19912;-69
2022/12/01 02:53:21;;;;;;;;;;;7.70;99.90;;;;;;5116117;28;20470;-67
2022/12/01 02:55:49;;;;;;;;;;;7.70;99.90;;;;;;5114826;28;19908;-69
2022/12/01 02:58:14;;;;;;;;;;;7.70;99.90;;;;;;5114491;28;20271;-69
2022/12/01 03:00:45;;;;;;;;;;;7.70;99.90;;;;;;5115214;28;19915;-68
2022/12/01 03:03:36;;;;;;;;;;;7.70;99.90;;;;;;5116278;28;19915;-68
2022/12/01 03:06:22;;;;;;;;;;;7.70;99.90;;;;;;5113414;28;19922;-69
2022/12/01 03:08:56;;;;;;;;;;;7.70;99.90;;;;;;5104461;28;19908;-68
2022/12/01 03:11:27;;;;;;;;;;;7.70;99.90;;;;;;5097595;28;19907;-69
2022/12/01 03:13:55;;;;;;;;;;;7.80;99.90;;;;;;5114540;27;20367;-70
2022/12/01 03:16:21;;;;;;;;;;;7.70;99.90;;;;;;5114259;28;19915;-69
2022/12/01 03:18:56;;;;;;;;;;;7.70;99.90;;;;;;5116438;28;19908;-70
2022/12/01 03:21:28;;;;;;;;;;;7.70;99.90;;;;;;5115879;28;20025;-69
2022/12/01 03:23:57;;;;;;;;;;;7.70;99.90;;;;;;5115701;28;19960;-70
2022/12/01 03:26:24;;;;;;;;;;;7.70;99.90;;;;;;5115111;28;19935;-69
2022/12/01 03:28:57;;;;;;;;;;;7.70;99.90;;;;;;5115510;28;19907;-70
2022/12/01 03:31:25;;;;;;;;;;;7.70;99.90;;;;;;5096877;28;19909;-67
2022/12/01 03:33:54;;;;;;;;;;;7.70;99.90;;;;;;5125621;27;19919;-68
2022/12/01 03:36:20;;;;;;;;;;;7.70;99.90;;;;;;5127501;27;19952;-70
2022/12/01 03:38:48;;;;;;;;;;;7.70;99.90;;;;;;5105382;27;19912;-70
2022/12/01 03:41:23;;;;;;;;;;;7.70;99.90;;;;;;5094219;28;19966;-69
2022/12/01 03:43:53;;;;;;;;;;;7.70;99.90;;;;;;5094106;28;19908;-67
2022/12/01 03:46:22;;;;;;;;;;;7.70;99.90;;;;;;5094252;28;19916;-69
2022/12/01 03:48:48;;;;;;;;;;;7.70;99.90;;;;;;5095050;28;20432;-67
2022/12/01 03:51:17;;;;;;;;;;;7.70;99.90;;;;;;5094041;28;20376;-69
2022/12/01 03:53:54;;;;;;;;;;;7.70;99.90;;;;;;5094225;28;19908;-69
2022/12/01 03:56:21;;;;;;;;;;;7.70;99.90;;;;;;5112469;28;19908;-68
2022/12/01 03:58:47;;;;;;;;;;;7.70;99.90;;;;;;5114707;28;20462;-69
2022/12/01 04:01:13;;;;;;;;;;;7.80;99.90;;;;;;5114616;28;20300;-67
2022/12/01 04:03:39;;;;;;;;;;;7.70;99.90;;;;;;5109810;28;19908;-69
2022/12/01 04:06:05;;;;;;;;;;;7.70;99.90;;;;;;5094436;28;20449;-67
2022/12/01 04:08:32;;;;;;;;;;;7.70;99.90;;;;;;5098185;27;19935;-66
2022/12/01 04:10:58;;;;;;;;;;;7.70;99.90;;;;;;5110089;28;20014;-67
2022/12/01 04:13:24;;;;;;;;;;;7.70;99.90;;;;;;5114330;28;19908;-69
2022/12/01 04:15:51;;;;;;;;;;;7.70;99.90;;;;;;5114158;28;20018;-68
2022/12/01 04:18:17;;;;;;;;;;;7.70;99.90;;;;;;5114326;28;19915;-69
2022/12/01 04:20:46;;;;;;;;;;;7.70;99.90;;;;;;5108525;28;19908;-69
2022/12/01 04:23:58;;;;;;;;;;;7.70;99.90;;;;;;5094384;28;19922;-66
2022/12/01 04:25:58;;;;;;;;;;;7.70;99.90;;;;;;5093672;28;19919;-69
2022/12/01 04:28:24;;;;;;;;;;;7.70;99.90;;;;;;5093632;28;20328;-69
2022/12/01 04:30:50;;;;;;;;;;;7.70;99.90;;;;;;5093524;28;19923;-67
2022/12/01 04:33:16;;;;;;;;;;;7.70;99.90;;;;;;5104017;28;19983;-67
2022/12/01 04:35:41;;;;;;;;;;;7.70;99.90;;;;;;5120809;27;19998;-69
2022/12/01 04:38:07;;;;;;;;;;;7.70;99.90;;;;;;5104149;28;19960;-68
2022/12/01 04:40:33;;;;;;;;;;;7.80;99.90;;;;;;5106224;28;19907;-68
2022/12/01 04:42:58;;;;;;;;;;;7.70;99.90;;;;;;5113449;28;19933;-67
2022/12/01 04:45:24;;;;;;;;;;;7.70;99.90;;;;;;5109193;28;19908;-67
2022/12/01 04:47:51;;;;;;;;;;;7.70;99.90;;;;;;5113871;28;20002;-69
2022/12/01 04:50:17;;;;;;;;;;;7.70;99.90;;;;;;5113904;28;19998;-69
2022/12/01 04:52:42;;;;;;;;;;;7.70;99.90;;;;;;5113715;28;19935;-69
2022/12/01 04:55:08;;;;;;;;;;;7.70;99.90;;;;;;5112037;28;19908;-69
2022/12/01 04:57:34;;;;;;;;;;;7.70;99.90;;;;;;5125763;27;20385;-70
2022/12/01 05:00:00;;;;;;;;;;;7.70;99.90;;;;;;5111098;28;20384;-69
2022/12/01 05:02:26;;;;;;;;;;;7.70;99.90;;;;;;5113263;28;19911;-69
2022/12/01 05:04:52;;;;;;;;;;;7.70;99.90;;;;;;5113238;28;19941;-69
2022/12/01 05:07:17;;;;;;;;;;;7.70;99.90;;;;;;5112419;28;20122;-68
2022/12/01 05:09:43;;;;;;;;;;;7.70;99.90;;;;;;5092517;28;19908;-69
2022/12/01 05:12:09;;;;;;;;;;;7.70;99.90;;;;;;5093907;28;19936;-69
2022/12/01 05:14:34;;;;;;;;;;;7.70;99.90;;;;;;5093863;28;19908;-70
2022/12/01 05:17:01;;;;;;;;;;;7.70;99.90;;;;;;5105814;28;19931;-67
2022/12/01 05:22:10;;;;;;;;;;;7.70;99.90;;;;;;5106722;28;19919;-69
2022/12/01 05:24:36;;;;;;;;;;;7.70;99.90;;;;;;5110150;28;19912;-68
2022/12/01 05:27:02;;;;;;;;;;;7.70;99.90;;;;;;5108192;28;19916;-69
2022/12/01 05:29:28;;;;;;;;;;;7.80;99.90;;;;;;5108510;28;19959;-69
2022/12/01 05:31:53;;;;;;;;;;;7.80;99.90;;;;;;5086571;28;20060;-69
2022/12/01 05:34:19;;;;;;;;;;;7.80;99.90;;;;;;5105542;28;19958;-69
2022/12/01 05:36:45;;;;;;;;;;;7.80;99.90;;;;;;5092951;28;19908;-69
2022/12/01 05:39:10;;;;;;;;;;;7.70;99.90;;;;;;5112998;28;19916;-67
2022/12/01 05:41:36;;;;;;;;;;;7.70;99.90;;;;;;5109462;28;19935;-69
2022/12/01 05:44:02;;;;;;;;;;;7.70;99.90;;;;;;5106659;28;19935;-69
2022/12/01 05:46:28;;;;;;;;;;;7.70;99.90;;;;;;5102834;28;19998;-66
2022/12/01 05:48:53;;;;;;;;;;;7.70;99.90;;;;;;5110039;28;19931;-72
2022/12/01 05:51:22;;;;;;;;;;;7.70;99.90;;;;;;5114904;28;19908;-71
2022/12/01 05:53:47;;;;;;;;;;;7.70;99.90;;;;;;5110771;28;19961;-71
2022/12/01 05:56:13;;;;;;;;;;;7.70;99.90;;;;;;5091977;28;19915;-66
2022/12/01 05:58:39;;;;;;;;;;;7.70;99.90;;;;;;5088138;28;19908;-71
2022/12/01 06:01:04;;;;;;;;;;;7.70;99.90;;;;;;5111230;28;19916;-72
2022/12/01 06:03:30;;;;;;;;;;;7.60;99.90;;;;;;5102233;28;19942;-71
2022/12/01 06:05:56;;;;;;;;;;;7.70;99.90;;;;;;5091117;28;19916;-71
2022/12/01 06:08:21;;;;;;;;;;;7.60;99.90;;;;;;5094686;28;19908;-72
2022/12/01 06:10:47;;;;;;;;;;;7.70;99.90;;;;;;5077505;28;20392;-70
2022/12/01 06:13:13;;;;;;;;;;;7.70;99.90;;;;;;5093165;28;19918;-71
2022/12/01 06:15:38;;;;;;;;;;;7.80;99.90;;;;;;5117082;28;19995;-72
2022/12/01 06:18:04;;;;;;;;;;;7.80;99.90;;;;;;5117983;28;20294;-71
2022/12/01 06:20:30;;;;;;;;;;;7.80;99.90;;;;;;5095843;28;20015;-72
2022/12/01 06:22:55;;;;;;;;;;;7.80;99.90;;;;;;5097307;28;19912;-72
2022/12/01 06:25:21;;;;;;;;;;;7.80;99.90;;;;;;5096376;28;19908;-71
2022/12/01 06:27:47;;;;;;;;;;;7.80;99.90;;;;;;5097263;28;19908;-72
2022/12/01 06:30:12;;;;;;;;;;;7.90;99.90;;;;;;5096350;28;20231;-71
2022/12/01 06:32:38;;;;;;;;;;;7.90;99.90;;;;;;5097261;28;19915;-72
2022/12/01 06:35:04;;;;;;;;;;;7.90;99.90;;;;;;5077665;28;19954;-69
2022/12/01 06:37:29;;;;;;;;;;;7.90;99.90;;;;;;5096064;28;19912;-67
2022/12/01 06:39:55;;;;;;;;;;;7.90;99.90;;;;;;5095690;28;20002;-71
2022/12/01 06:42:21;;;;;;;;;;;7.90;99.90;;;;;;5116601;27;19908;-70
2022/12/01 06:44:47;;;;;;;;;;;7.90;99.90;;;;;;5115199;28;19961;-71
2022/12/01 06:47:14;;;;;;;;;;;7.90;99.90;;;;;;5115240;28;19915;-69
2022/12/01 06:49:40;;;;;;;;;;;7.90;99.90;;;;;;5114984;28;20316;-70
2022/12/01 06:52:06;;;;;;;;;;;7.90;99.90;;;;;;5114878;28;19911;-70
2022/12/01 06:54:32;;;;;;;;;;;7.80;99.90;;;;;;5103058;28;19925;-70
2022/12/01 06:56:58;;;;;;;;;;;7.90;99.90;;;;;;5094209;28;20385;-70
2022/12/01 06:59:23;;;;;;;;;;;7.90;99.90;;;;;;5095001;28;19923;-71
2022/12/01 07:01:49;;;;;;;;;;;7.90;99.90;;;;;;5094519;28;19919;-69
2022/12/01 07:04:15;;;;;;;;;;;8.00;99.90;;;;;;5095114;28;19916;-69
2022/12/01 07:06:40;;;;;;;;;;;8.00;99.90;;;;;;5103170;28;19920;-70
2022/12/01 07:09:06;;;;;;;;;;;8.00;99.90;;;;;;5113240;28;19912;-70
2022/12/01 07:11:34;;;;;;;;;;;8.00;99.90;;;;;;5086844;28;20053;-70
2022/12/01 07:14:00;;;;;;;;;;;8.00;99.90;;;;;;5096606;27;19948;-70
2022/12/01 07:16:26;;;;;;;;;;;8.00;99.90;;;;;;5106088;27;20060;-70
2022/12/01 07:18:52;;;;;;;;;;;8.10;99.90;;;;;;5109857;27;20291;-71
2022/12/01 07:21:17;;;;;;;;;;;8.10;99.90;;;;;;5112077;28;19908;-70
2022/12/01 07:23:43;;;;;;;;;;;8.20;99.90;;;;;;5115659;28;20002;-70
2022/12/01 07:26:13;;;;;;;;;;;8.20;99.90;;;;;;5112920;28;19918;-71
2022/12/01 07:28:39;;;;;;;;;;;8.20;99.90;;;;;;5105158;28;19912;-70
2022/12/01 07:31:06;;;;;;;;;;;8.20;99.90;;;;;;5108712;28;20275;-70
2022/12/01 07:33:31;;;;;;;;;;;8.20;99.90;;;;;;5112690;28;19911;-70
2022/12/01 07:35:57;;;;;;;;;;;8.20;99.90;;;;;;5114832;28;19915;-70
2022/12/01 07:38:23;;;;;;;;;;;8.30;99.90;;;;;;5116007;28;19908;-71
2022/12/01 07:40:48;;;;;;;;;;;8.20;99.90;;;;;;5105872;28;19919;-70
2022/12/01 07:43:14;;;;;;;;;;;8.30;99.90;;;;;;5113011;28;19998;-70
2022/12/01 07:45:39;;;;;;;;;;;8.20;99.90;;;;;;5113812;28;19911;-70
2022/12/01 07:48:05;;;;;;;;;;;8.30;99.90;;;;;;5108253;28;19922;-70
2022/12/01 07:50:31;;;;;;;;;;;8.30;99.90;;;;;;5129679;27;20227;-70
2022/12/01 07:52:56;;;;;;;;;;;8.40;99.90;;;;;;5110691;28;19962;-70
2022/12/01 07:55:22;;;;;;;;;;;8.40;99.90;;;;;;5124538;27;19907;-71
2022/12/01 07:57:48;;;;;;;;;;;8.50;99.90;;;;;;5114790;28;19975;-70
2022/12/01 08:00:14;;;;;;;;;;;8.50;99.90;;;;;;5111740;28;19915;-70
2022/12/01 08:02:39;;;;;;;;;;;8.60;99.90;;;;;;5091525;28;19915;-71
2022/12/01 08:05:05;;;;;;;;;;;8.60;99.90;;;;;;5114001;28;19920;-71
2022/12/01 08:07:30;;;;;;;;;;;8.60;99.90;;;;;;5114589;28;20446;-71
2022/12/01 08:09:56;;;;;;;;;;;8.70;99.90;;;;;;5117094;27;19919;-70
2022/12/01 08:12:22;;;;;;;;;;;8.70;99.90;;;;;;5093627;28;20367;-71
2022/12/01 08:14:47;;;;;;;;;;;8.70;99.90;;;;;;5109524;28;20256;-70
2022/12/01 08:17:13;;;;;;;;;;;8.70;99.90;;;;;;5110794;28;19908;-70
2022/12/01 08:19:38;;;;;;;;;;;8.80;99.90;;;;;;5110274;27;19912;-71
2022/12/01 08:22:04;;;;;;;;;;;8.70;99.90;;;;;;5113929;28;19907;-70
2022/12/01 08:24:30;;;;;;;;;;;8.70;99.90;;;;;;5114791;28;19930;-70
2022/12/01 08:26:55;;;;;;;;;;;8.80;99.90;;;;;;5115298;28;20440;-70
2022/12/01 08:29:21;;;;;;;;;;;8.90;99.90;;;;;;5114544;28;19930;-70
2022/12/01 08:31:47;;;;;;;;;;;8.90;99.90;;;;;;5113892;28;19908;-71
2022/12/01 08:34:12;;;;;;;;;;;8.90;99.90;;;;;;5103653;27;19913;-70
2022/12/01 08:36:38;;;;;;;;;;;8.90;99.90;;;;;;5099602;28;19912;-70
2022/12/01 08:39:05;;;;;;;;;;;8.90;99.90;;;;;;5108580;28;19954;-70
2022/12/01 08:41:31;;;;;;;;;;;9.00;99.90;;;;;;5128131;27;19965;-70
2022/12/01 08:43:58;;;;;;;;;;;8.90;99.90;;;;;;5110597;28;19916;-72
2022/12/01 08:46:24;;;;;;;;;;;9.00;99.90;;;;;;5112236;28;20275;-69
2022/12/01 08:48:49;;;;;;;;;;;9.00;99.90;;;;;;5107958;28;19919;-69
2022/12/01 08:51:17;;;;;;;;;;;9.00;99.90;;;;;;5110786;28;20017;-69
2022/12/01 08:53:45;;;;;;;;;;;9.00;99.90;;;;;;5102779;27;19927;-69
2022/12/01 08:56:19;;;;;;;;;;;9.00;99.90;;;;;;5105680;27;19948;-70
2022/12/01 08:58:45;;;;;;;;;;;9.00;99.90;;;;;;5108189;28;19918;-70
2022/12/01 09:01:11;;;;;;;;;;;9.00;99.90;;;;;;5116107;27;20360;-70
2022/12/01 09:03:38;;;;;;;;;;;9.00;99.90;;;;;;5113098;28;20362;-71
2022/12/01 09:06:14;;;;;;;;;;;9.00;99.90;;;;;;5107353;28;19917;-71
2022/12/01 09:08:40;;;;;;;;;;;9.00;99.90;;;;;;5085804;28;19912;-71
2022/12/01 09:11:07;;;;;;;;;;;9.10;99.90;;;;;;5108277;28;20159;-71
2022/12/01 09:13:33;;;;;;;;;;;9.10;99.90;;;;;;5110913;28;19961;-71
2022/12/01 09:16:06;;;;;;;;;;;9.10;99.90;;;;;;5113552;28;20307;-71
2022/12/01 09:18:32;;;;;;;;;;;9.20;99.90;;;;;;5095975;28;19982;-70
2022/12/01 09:20:58;;;;;;;;;;;9.30;99.90;;;;;;5104837;28;19947;-71
2022/12/01 09:23:25;;;;;;;;;;;9.30;99.90;;;;;;5113748;28;20379;-71
2022/12/01 09:25:51;;;;;;;;;;;9.40;99.90;;;;;;5110932;28;19920;-71
2022/12/01 09:28:18;;;;;;;;;;;9.40;99.90;;;;;;5112666;28;19954;-70
2022/12/01 09:30:44;;;;;;;;;;;9.50;99.90;;;;;;5091296;28;20035;-70
2022/12/01 09:33:09;;;;;;;;;;;9.50;99.90;;;;;;5114824;28;20282;-71
2022/12/01 09:35:35;;;;;;;;;;;9.60;99.90;;;;;;5092991;28;19916;-71
2022/12/01 09:38:01;;;;;;;;;;;9.60;99.90;;;;;;5104822;28;20045;-70
2022/12/01 09:40:30;;;;;;;;;;;9.60;99.90;;;;;;5106926;28;19955;-71
2022/12/01 09:42:56;;;;;;;;;;;9.50;99.90;;;;;;5098538;28;20310;-70
2022/12/01 09:45:26;;;;;;;;;;;9.60;99.90;;;;;;5113345;28;19908;-71
2022/12/01 09:47:55;;;;;;;;;;;9.70;99.90;;;;;;5098907;28;19919;-71
2022/12/01 09:50:24;;;;;;;;;;;9.70;99.90;;;;;;5117591;28;19908;-69
2022/12/01 09:52:56;;;;;;;;;;;9.70;99.90;;;;;;5118590;27;20139;-69
2022/12/01 09:55:23;;;;;;;;;;;9.70;99.90;;;;;;5089594;28;19986;-69
2022/12/01 09:57:53;;;;;;;;;;;9.70;99.90;;;;;;5098863;28;20376;-70
2022/12/01 10:00:23;;;;;;;;;;;9.70;99.90;;;;;;5116929;28;19952;-69
2022/12/01 10:02:51;;;;;;;;;;;9.80;99.90;;;;;;5117429;28;20010;-70
2022/12/01 10:05:21;;;;;;;;;;;9.80;99.90;;;;;;5117092;28;19916;-70
2022/12/01 10:07:59;;;;;;;;;;;9.90;99.90;;;;;;5117295;28;20389;-70
2022/12/01 10:10:45;;;;;;;;;;;10.00;99.90;;;;;;5117554;28;20002;-71
2022/12/01 10:13:19;;;;;;;;;;;10.00;99.90;;;;;;5117466;28;19912;-71
2022/12/01 10:15:56;;;;;;;;;;;10.10;99.90;;;;;;5135097;27;19912;-72
2022/12/01 10:18:30;;;;;;;;;;;10.10;99.90;;;;;;5097681;28;19950;-71
2022/12/01 10:21:15;;;;;;;;;;;10.10;99.90;;;;;;5116932;28;19907;-70
2022/12/01 10:23:43;;;;;;;;;;;10.20;99.90;;;;;;5098807;28;19915;-70
2022/12/01 10:26:15;;;;;;;;;;;10.20;99.90;;;;;;5106820;27;20038;-70
2022/12/01 10:28:41;;;;;;;;;;;10.20;99.90;;;;;;5112295;28;19930;-69
2022/12/01 10:31:13;;;;;;;;;;;10.00;99.90;;;;;;5118545;28;20311;-69
2022/12/01 10:33:45;;;;;;;;;;;9.90;99.90;;;;;;5117787;28;20004;-69
2022/12/01 10:36:11;;;;;;;;;;;9.90;99.90;;;;;;5098947;28;19931;-70
2022/12/01 10:38:38;;;;;;;;;;;9.90;99.90;;;;;;5078626;28;19908;-70
2022/12/01 10:41:04;;;;;;;;;;;9.80;99.90;;;;;;5097376;28;20394;-70
2022/12/01 10:43:37;;;;;;;;;;;9.90;99.90;;;;;;5106163;28;19915;-71
2022/12/01 10:46:07;;;;;;;;;;;10.00;99.90;;;;;;5103366;28;19916;-70
2022/12/01 10:48:50;;;;;;;;;;;10.00;99.90;;;;;;5109965;28;19908;-70
2022/12/01 10:51:16;;;;;;;;;;;9.90;99.90;;;;;;5116209;28;19911;-70
2022/12/01 10:53:41;;;;;;;;;;;9.90;99.90;;;;;;5111584;28;19949;-70
2022/12/01 10:56:09;;;;;;;;;;;10.00;99.90;;;;;;5114833;28;19908;-70
2022/12/01 10:58:54;;;;;;;;;;;9.90;99.90;;;;;;5116418;28;19957;-70
2022/12/01 11:01:43;;;;;;;;;;;9.90;99.90;;;;;;5111751;28;20339;-70
2022/12/01 11:04:26;;;;;;;;;;;10.00;99.90;;;;;;5117633;28;19912;-70
2022/12/01 11:06:52;;;;;;;;;;;10.00;99.90;;;;;;5082390;28;19919;-71
2022/12/01 11:09:19;;;;;;;;;;;9.90;99.90;;;;;;5109522;28;19908;-70
2022/12/01 11:11:45;;;;;;;;;;;9.90;99.90;;;;;;5117676;28;19912;-71
2022/12/01 11:14:22;;;;;;;;;;;9.90;99.90;;;;;;5118247;28;19908;-70
2022/12/01 11:16:49;;;;;;;;;;;10.10;99.90;;;;;;5105632;28;19964;-70
2022/12/01 11:19:33;;;;;;;;;;;10.00;99.90;;;;;;5117116;28;20057;-70
2022/12/01 11:22:17;;;;;;;;;;;10.00;99.90;;;;;;5114302;28;20007;-70
2022/12/01 11:24:54;;;;;;;;;;;10.00;99.90;;;;;;5117903;28;19930;-70
2022/12/01 11:27:21;;;;;;;;;;;10.20;99.90;;;;;;5111733;28;20072;-66
2022/12/01 11:29:48;;;;;;;;;;;10.20;99.90;;;;;;5117415;28;19916;-67
2022/12/01 11:32:20;;;;;;;;;;;10.20;99.90;;;;;;5118083;28;19923;-69
2022/12/01 11:35:03;;;;;;;;;;;10.30;99.90;;;;;;5099264;28;19915;-67
2022/12/01 11:37:31;;;;;;;;;;;10.10;99.90;;;;;;5119440;28;20321;-66
2022/12/01 11:40:04;;;;;;;;;;;10.00;99.90;;;;;;5121204;27;19912;-68
2022/12/01 11:42:30;;;;;;;;;;;9.90;99.90;;;;;;5123358;27;19987;-67
2022/12/01 11:45:05;;;;;;;;;;;10.00;99.90;;;;;;5116573;27;19967;-67
2022/12/01 11:47:31;;;;;;;;;;;9.90;99.90;;;;;;5081963;28;19931;-66
2022/12/01 11:49:58;;;;;;;;;;;9.90;99.90;;;;;;5099761;28;20280;-65
2022/12/01 11:52:29;;;;;;;;;;;9.90;99.90;;;;;;5100535;28;19908;-69
2022/12/01 11:54:59;;;;;;;;;;;10.00;99.90;;;;;;5099673;28;19950;-68
2022/12/01 11:57:27;;;;;;;;;;;10.00;99.90;;;;;;5106847;28;19935;-68
2022/12/01 11:59:53;;;;;;;;;;;9.90;99.90;;;;;;5114409;28;19976;-66
2022/12/01 12:02:34;;;;;;;;;;;10.00;99.90;;;;;;5099961;28;20414;-65
2022/12/01 12:05:19;;;;;;;;;;;10.00;99.90;;;;;;5134083;27;19972;-69
2022/12/01 12:07:47;;;;;;;;;;;10.00;99.90;;;;;;5122027;28;20379;-68
2022/12/01 12:10:19;;;;;;;;;;;10.00;99.90;;;;;;5121213;28;19931;-69
2022/12/01 12:13:11;;;;;;;;;;;10.00;99.90;;;;;;5120062;28;20381;-69
2022/12/01 12:15:43;;;;;;;;;;;10.00;99.90;;;;;;5121434;28;20343;-69
2022/12/01 12:18:17;;;;;;;;;;;10.10;99.90;;;;;;5104419;28;19978;-68
2022/12/01 12:20:52;;;;;;;;;;;10.00;99.90;;;;;;5117313;28;19908;-68
2022/12/01 12:23:17;;;;;;;;;;;10.00;99.90;;;;;;5101317;28;19992;-66
2022/12/01 12:26:05;;;;;;;;;;;10.00;99.90;;;;;;5101312;28;19908;-68
2022/12/01 12:28:49;;;;;;;;;;;10.10;99.90;;;;;;5139091;27;19918;-68
2022/12/01 12:31:21;;;;;;;;;;;10.20;99.90;;;;;;5103880;28;20406;-66
2022/12/01 12:34:02;;;;;;;;;;;10.20;99.90;;;;;;5101564;28;19915;-67
2022/12/01 12:36:54;;;;;;;;;;;10.20;99.90;;;;;;5102356;28;19918;-67
2022/12/01 12:39:21;;;;;;;;;;;10.20;99.90;;;;;;5087222;28;20312;-69
2022/12/01 12:41:52;;;;;;;;;;;10.20;99.90;;;;;;5118826;28;19908;-68
2022/12/01 12:44:36;;;;;;;;;;;10.20;99.90;;;;;;5118832;28;20375;-69
2022/12/01 12:47:02;;;;;;;;;;;10.20;99.90;;;;;;5099496;28;20415;-66
2022/12/01 12:49:35;;;;;;;;;;;10.30;99.90;;;;;;5115478;27;19969;-66
2022/12/01 12:52:06;;;;;;;;;;;10.30;99.90;;;;;;5120935;27;20274;-66
2022/12/01 12:54:40;;;;;;;;;;;10.30;99.90;;;;;;5117836;28;20178;-68
2022/12/01 12:57:12;;;;;;;;;;;10.30;99.90;;;;;;5117682;28;19939;-66
2022/12/01 12:59:41;;;;;;;;;;;10.40;99.90;;;;;;5120383;28;19908;-68
2022/12/01 13:02:33;;;;;;;;;;;10.40;99.90;;;;;;5101694;28;19967;-69
2022/12/01 13:04:59;;;;;;;;;;;10.40;99.90;;;;;;5097640;28;20346;-69
2022/12/01 13:07:38;;;;;;;;;;;10.30;99.90;;;;;;5116607;28;19912;-67
2022/12/01 13:10:10;;;;;;;;;;;10.30;99.90;;;;;;5115758;28;20075;-68
2022/12/01 13:12:39;;;;;;;;;;;10.30;99.90;;;;;;5099496;28;20020;-66
2022/12/01 13:15:15;;;;;;;;;;;10.30;99.90;;;;;;5111140;28;20390;-68
2022/12/01 13:17:50;;;;;;;;;;;10.40;99.90;;;;;;5100442;28;19908;-68
2022/12/01 13:20:18;;;;;;;;;;;10.50;99.90;;;;;;5103129;28;19916;-69
2022/12/01 13:22:47;;;;;;;;;;;10.40;99.90;;;;;;5122634;28;19922;-68
2022/12/01 13:25:14;;;;;;;;;;;10.40;99.90;;;;;;5092327;28;19919;-67
2022/12/01 13:27:41;;;;;;;;;;;10.40;99.90;;;;;;5081291;28;19912;-65
2022/12/01 13:30:16;;;;;;;;;;;10.40;99.90;;;;;;5097972;28;19908;-68
2022/12/01 13:32:42;;;;;;;;;;;10.40;99.90;;;;;;5099355;28;19908;-67
2022/12/01 13:35:19;;;;;;;;;;;10.30;99.90;;;;;;5107292;28;19946;-69
2022/12/01 13:37:45;;;;;;;;;;;10.30;99.90;;;;;;5114723;28;20011;-68
2022/12/01 13:40:31;;;;;;;;;;;10.20;99.90;;;;;;5092580;28;19909;-68
2022/12/01 13:43:04;;;;;;;;;;;10.20;99.90;;;;;;5116169;28;19912;-67
2022/12/01 13:45:35;;;;;;;;;;;10.10;99.90;;;;;;5101828;28;19915;-69
2022/12/01 13:48:01;;;;;;;;;;;10.10;99.90;;;;;;5116260;28;19922;-65
2022/12/01 13:50:41;;;;;;;;;;;10.00;99.90;;;;;;5115649;28;19914;-69
2022/12/01 13:53:13;;;;;;;;;;;10.00;99.90;;;;;;5119165;28;19912;-64
2022/12/01 13:56:05;;;;;;;;;;;9.80;99.90;;;;;;5119825;28;19976;-66
2022/12/01 13:58:31;;;;;;;;;;;9.70;99.90;;;;;;5113189;28;19958;-68
2022/12/01 14:01:16;;;;;;;;;;;9.60;99.90;;;;;;5099045;28;19908;-68
2022/12/01 14:03:50;;;;;;;;;;;9.50;99.90;;;;;;5118985;28;19989;-67
2022/12/01 14:06:25;;;;;;;;;;;9.20;99.90;;;;;;5102191;28;19999;-69
2022/12/01 14:08:53;;;;;;;;;;;9.20;99.90;;;;;;5108227;28;20367;-68
2022/12/01 14:11:21;;;;;;;;;;;9.10;99.90;;;;;;5111892;28;19907;-65
2022/12/01 14:13:53;;;;;;;;;;;9.10;99.90;;;;;;5100131;28;19908;-66
2022/12/01 14:16:19;;;;;;;;;;;9.00;99.90;;;;;;5092273;28;19936;-69
2022/12/01 14:18:49;;;;;;;;;;;9.00;99.90;;;;;;5124539;28;19985;-70
2022/12/01 14:21:15;;;;;;;;;;;9.00;99.90;;;;;;5102600;28;20028;-69
2022/12/01 14:24:00;;;;;;;;;;;8.90;99.90;;;;;;5120717;28;20025;-69
2022/12/01 14:26:27;;;;;;;;;;;8.90;99.90;;;;;;5102165;28;19920;-69
2022/12/01 14:28:59;;;;;;;;;;;8.90;99.90;;;;;;5100939;28;19908;-66
2022/12/01 14:31:34;;;;;;;;;;;8.90;99.90;;;;;;5083519;28;19908;-68
2022/12/01 14:34:33;;;;;;;;;;;8.90;99.90;;;;;;5105519;28;19912;-67
2022/12/01 14:36:59;;;;;;;;;;;8.90;99.90;;;;;;5086655;28;20351;-67
2022/12/01 14:39:24;;;;;;;;;;;8.90;99.90;;;;;;5084881;28;19908;-66
2022/12/01 14:41:59;;;;;;;;;;;8.90;99.90;;;;;;5083303;28;19980;-67
2022/12/01 14:44:37;;;;;;;;;;;8.90;99.90;;;;;;5111361;27;20382;-66